sensor_id;sensor_type;location;lat;lon;timestamp;temperature;humidity
21318;DHT22;10818;50.830;6.524;2022-09-01T00:03:18;18.10;99.90
21318;DHT22;10818;50.830;6.524;2022-09-01T00:08:19;17.90;99.90
21318;DHT22;10818;50.830;6.524;2022-09-01T00:13:20;17.70;99.90
21318;DHT22;10818;50.830;6.524;2022-09-01T00:18:20;17.60;99.90
21318;DHT22;10818;50.830;6.524;2022-09-01T00:23:21;17.40;99.90
21318;DHT22;10818;50.830;6.524;2022-09-01T00:28:21;17.30;99.90
21318;DHT22;10818;50.830;6.524;2022-09-01T00:33:22;17.00;99.90
21318;DHT22;10818;50.830;6.524;2022-09-01T00:38:23;17.00;99.90
21318;DHT22;10818;50.830;6.524;2022-09-01T00:48:36;16.90;99.90
21318;DHT22;10818;50.830;6.524;2022-09-01T00:53:38;16.80;99.90
21318;DHT22;10818;50.830;6.524;2022-09-01T00:58:40;16.60;99.90
21318;DHT22;10818;50.830;6.524;2022-09-01T01:03:41;16.40;99.90
21318;DHT22;10818;50.830;6.524;2022-09-01T01:08:47;16.20;99.90
21318;DHT22;10818;50.830;6.524;2022-09-01T01:14:06;16.60;99.90
21318;DHT22;10818;50.830;6.524;2022-09-01T01:19:23;16.20;99.90
21318;DHT22;10818;50.830;6.524;2022-09-01T01:24:46;16.10;99.90
21318;DHT22;10818;50.830;6.524;2022-09-01T01:29:47;16.20;99.90
21318;DHT22;10818;50.830;6.524;2022-09-01T01:34:51;16.10;99.90
21318;DHT22;10818;50.830;6.524;2022-09-01T01:39:53;16.00;99.90
21318;DHT22;10818;50.830;6.524;2022-09-01T01:44:53;16.20;99.90
21318;DHT22;10818;50.830;6.524;2022-09-01T01:49:54;16.10;99.90
21318;DHT22;10818;50.830;6.524;2022-09-01T01:54:56;16.20;99.90
21318;DHT22;10818;50.830;6.524;2022-09-01T01:59:57;16.20;99.90
21318;DHT22;10818;50.830;6.524;2022-09-01T02:04:57;16.20;99.90
21318;DHT22;10818;50.830;6.524;2022-09-01T02:09:58;16.00;99.90
21318;DHT22;10818;50.830;6.524;2022-09-01T02:15:01;15.90;99.90
21318;DHT22;10818;50.830;6.524;2022-09-01T02:20:02;15.80;99.90
21318;DHT22;10818;50.830;6.524;2022-09-01T02:25:04;15.80;99.90
21318;DHT22;10818;50.830;6.524;2022-09-01T02:30:06;15.60;99.90
21318;DHT22;10818;50.830;6.524;2022-09-01T02:35:10;15.50;99.90
21318;DHT22;10818;50.830;6.524;2022-09-01T02:40:11;15.40;99.90
21318;DHT22;10818;50.830;6.524;2022-09-01T02:45:11;15.40;99.90
21318;DHT22;10818;50.830;6.524;2022-09-01T02:50:16;15.40;99.90
21318;DHT22;10818;50.830;6.524;2022-09-01T02:55:18;15.40;99.90
21318;DHT22;10818;50.830;6.524;2022-09-01T03:00:22;15.20;99.90
21318;DHT22;10818;50.830;6.524;2022-09-01T03:05:30;15.10;99.90
21318;DHT22;10818;50.830;6.524;2022-09-01T03:10:35;15.10;99.90
21318;DHT22;10818;50.830;6.524;2022-09-01T03:15:36;15.10;99.90
21318;DHT22;10818;50.830;6.524;2022-09-01T03:20:40;15.10;99.90
21318;DHT22;10818;50.830;6.524;2022-09-01T03:25:46;14.90;99.90
21318;DHT22;10818;50.830;6.524;2022-09-01T03:30:50;14.80;99.90
21318;DHT22;10818;50.830;6.524;2022-09-01T03:35:51;14.80;99.90
21318;DHT22;10818;50.830;6.524;2022-09-01T03:40:55;14.80;99.90
21318;DHT22;10818;50.830;6.524;2022-09-01T03:46:00;14.90;99.90
21318;DHT22;10818;50.830;6.524;2022-09-01T03:51:00;14.70;99.90
21318;DHT22;10818;50.830;6.524;2022-09-01T03:56:04;14.60;99.90
21318;DHT22;10818;50.830;6.524;2022-09-01T04:01:07;14.50;99.90
21318;DHT22;10818;50.830;6.524;2022-09-01T04:06:09;14.50;99.90
21318;DHT22;10818;50.830;6.524;2022-09-01T04:11:20;14.60;99.90
21318;DHT22;10818;50.830;6.524;2022-09-01T04:16:25;14.50;99.90
21318;DHT22;10818;50.830;6.524;2022-09-01T04:21:49;14.60;99.90
21318;DHT22;10818;50.830;6.524;2022-09-01T04:26:51;14.40;99.90
21318;DHT22;10818;50.830;6.524;2022-09-01T04:31:56;14.30;99.90
21318;DHT22;10818;50.830;6.524;2022-09-01T04:37:02;14.30;99.90
21318;DHT22;10818;50.830;6.524;2022-09-01T04:42:03;14.20;99.90
21318;DHT22;10818;50.830;6.524;2022-09-01T04:47:08;14.30;99.90
21318;DHT22;10818;50.830;6.524;2022-09-01T04:52:10;14.10;99.90
21318;DHT22;10818;50.830;6.524;2022-09-01T04:57:12;14.20;99.90
21318;DHT22;10818;50.830;6.524;2022-09-01T05:02:12;14.30;99.90
21318;DHT22;10818;50.830;6.524;2022-09-01T05:07:13;14.10;99.90
21318;DHT22;10818;50.830;6.524;2022-09-01T05:12:16;14.20;99.90
21318;DHT22;10818;50.830;6.524;2022-09-01T05:17:22;14.20;99.90
21318;DHT22;10818;50.830;6.524;2022-09-01T05:22:26;14.10;99.90
21318;DHT22;10818;50.830;6.524;2022-09-01T05:27:27;14.10;99.90
21318;DHT22;10818;50.830;6.524;2022-09-01T05:32:28;14.30;99.90
21318;DHT22;10818;50.830;6.524;2022-09-01T05:37:31;14.30;99.90
21318;DHT22;10818;50.830;6.524;2022-09-01T05:42:32;14.30;99.90
21318;DHT22;10818;50.830;6.524;2022-09-01T05:47:33;14.50;99.90
21318;DHT22;10818;50.830;6.524;2022-09-01T05:52:37;14.40;99.90
21318;DHT22;10818;50.830;6.524;2022-09-01T05:57:38;14.70;99.90
21318;DHT22;10818;50.830;6.524;2022-09-01T06:02:40;14.80;99.90
21318;DHT22;10818;50.830;6.524;2022-09-01T06:07:41;15.20;99.90
21318;DHT22;10818;50.830;6.524;2022-09-01T06:12:43;15.50;99.90
21318;DHT22;10818;50.830;6.524;2022-09-01T06:17:45;15.80;99.90
21318;DHT22;10818;50.830;6.524;2022-09-01T06:22:46;16.10;99.90
21318;DHT22;10818;50.830;6.524;2022-09-01T06:27:48;16.40;99.90
21318;DHT22;10818;50.830;6.524;2022-09-01T06:32:48;16.70;99.90
21318;DHT22;10818;50.830;6.524;2022-09-01T06:37:49;16.70;99.90
21318;DHT22;10818;50.830;6.524;2022-09-01T06:42:51;17.00;99.90
21318;DHT22;10818;50.830;6.524;2022-09-01T06:47:52;17.00;99.90
21318;DHT22;10818;50.830;6.524;2022-09-01T06:52:54;17.20;99.90
21318;DHT22;10818;50.830;6.524;2022-09-01T06:58:10;17.50;99.90
21318;DHT22;10818;50.830;6.524;2022-09-01T07:03:13;17.90;99.90
21318;DHT22;10818;50.830;6.524;2022-09-01T07:08:15;18.20;99.90
21318;DHT22;10818;50.830;6.524;2022-09-01T07:13:21;18.60;99.90
21318;DHT22;10818;50.830;6.524;2022-09-01T07:18:25;22.70;99.90
21318;DHT22;10818;50.830;6.524;2022-09-01T07:23:26;27.80;99.90
21318;DHT22;10818;50.830;6.524;2022-09-01T07:28:29;31.20;94.20
21318;DHT22;10818;50.830;6.524;2022-09-01T07:33:31;34.20;80.40
21318;DHT22;10818;50.830;6.524;2022-09-01T07:38:32;35.30;71.80
21318;DHT22;10818;50.830;6.524;2022-09-01T07:43:33;37.30;65.00
21318;DHT22;10818;50.830;6.524;2022-09-01T07:48:33;38.90;58.20
21318;DHT22;10818;50.830;6.524;2022-09-01T07:53:34;37.40;56.40
21318;DHT22;10818;50.830;6.524;2022-09-01T07:58:36;39.90;54.10
21318;DHT22;10818;50.830;6.524;2022-09-01T08:03:37;41.90;50.40
21318;DHT22;10818;50.830;6.524;2022-09-01T08:08:39;41.40;48.60
21318;DHT22;10818;50.830;6.524;2022-09-01T08:13:39;42.50;45.50
21318;DHT22;10818;50.830;6.524;2022-09-01T08:18:41;43.70;43.60
21318;DHT22;10818;50.830;6.524;2022-09-01T08:23:42;44.70;40.60
21318;DHT22;10818;50.830;6.524;2022-09-01T08:28:42;44.60;39.80
21318;DHT22;10818;50.830;6.524;2022-09-01T08:33:43;44.60;38.40
21318;DHT22;10818;50.830;6.524;2022-09-01T08:38:44;43.30;38.90
21318;DHT22;10818;50.830;6.524;2022-09-01T08:49:09;41.40;41.00
21318;DHT22;10818;50.830;6.524;2022-09-01T08:54:25;36.30;46.80
21318;DHT22;10818;50.830;6.524;2022-09-01T08:59:28;32.60;52.50
21318;DHT22;10818;50.830;6.524;2022-09-01T09:09:51;29.70;58.20
21318;DHT22;10818;50.830;6.524;2022-09-01T09:14:58;28.80;60.20
21318;DHT22;10818;50.830;6.524;2022-09-01T09:20:02;27.80;63.00
21318;DHT22;10818;50.830;6.524;2022-09-01T09:30:09;27.00;65.10
21318;DHT22;10818;50.830;6.524;2022-09-01T09:35:22;26.40;67.50
21318;DHT22;10818;50.830;6.524;2022-09-01T09:40:23;26.30;68.50
21318;DHT22;10818;50.830;6.524;2022-09-01T09:45:25;26.10;67.40
21318;DHT22;10818;50.830;6.524;2022-09-01T09:50:27;25.60;68.20
21318;DHT22;10818;50.830;6.524;2022-09-01T09:55:31;25.80;67.30
21318;DHT22;10818;50.830;6.524;2022-09-01T10:00:33;25.70;66.00
21318;DHT22;10818;50.830;6.524;2022-09-01T10:15:42;26.10;62.30
21318;DHT22;10818;50.830;6.524;2022-09-01T10:20:55;25.90;63.80
21318;DHT22;10818;50.830;6.524;2022-09-01T10:25:59;25.60;66.70
21318;DHT22;10818;50.830;6.524;2022-09-01T10:31:00;25.80;64.30
21318;DHT22;10818;50.830;6.524;2022-09-01T10:36:02;25.60;65.00
21318;DHT22;10818;50.830;6.524;2022-09-01T10:41:05;25.40;65.60
21318;DHT22;10818;50.830;6.524;2022-09-01T11:17:17;26.30;63.40
21318;DHT22;10818;50.830;6.524;2022-09-01T11:32:38;26.10;65.10
21318;DHT22;10818;50.830;6.524;2022-09-01T11:37:40;26.10;65.70
21318;DHT22;10818;50.830;6.524;2022-09-01T11:42:41;26.50;64.30
21318;DHT22;10818;50.830;6.524;2022-09-01T11:47:44;26.50;63.90
21318;DHT22;10818;50.830;6.524;2022-09-01T11:57:58;26.90;64.00
21318;DHT22;10818;50.830;6.524;2022-09-01T12:02:59;26.80;63.00
21318;DHT22;10818;50.830;6.524;2022-09-01T12:08:18;27.20;63.20
21318;DHT22;10818;50.830;6.524;2022-09-01T12:13:20;27.30;62.60
21318;DHT22;10818;50.830;6.524;2022-09-01T12:18:22;27.30;61.70
21318;DHT22;10818;50.830;6.524;2022-09-01T12:28:25;27.00;63.40
21318;DHT22;10818;50.830;6.524;2022-09-01T12:33:26;26.60;64.40
21318;DHT22;10818;50.830;6.524;2022-09-01T12:38:28;26.90;64.20
21318;DHT22;10818;50.830;6.524;2022-09-01T12:48:33;27.40;62.30
21318;DHT22;10818;50.830;6.524;2022-09-01T12:53:34;27.30;62.50
21318;DHT22;10818;50.830;6.524;2022-09-01T12:58:35;27.30;62.90
21318;DHT22;10818;50.830;6.524;2022-09-01T13:03:35;27.30;62.70
21318;DHT22;10818;50.830;6.524;2022-09-01T13:08:36;27.20;63.30
21318;DHT22;10818;50.830;6.524;2022-09-01T13:13:36;26.90;64.10
21318;DHT22;10818;50.830;6.524;2022-09-01T13:18:37;26.60;63.40
21318;DHT22;10818;50.830;6.524;2022-09-01T13:23:38;26.20;64.90
21318;DHT22;10818;50.830;6.524;2022-09-01T13:33:39;26.60;63.60
21318;DHT22;10818;50.830;6.524;2022-09-01T13:38:40;27.00;63.60
21318;DHT22;10818;50.830;6.524;2022-09-01T13:43:40;26.90;62.50
21318;DHT22;10818;50.830;6.524;2022-09-01T13:48:41;26.90;65.00
21318;DHT22;10818;50.830;6.524;2022-09-01T13:53:41;27.20;62.50
21318;DHT22;10818;50.830;6.524;2022-09-01T13:58:42;27.10;63.20
21318;DHT22;10818;50.830;6.524;2022-09-01T14:03:42;26.80;64.90
21318;DHT22;10818;50.830;6.524;2022-09-01T14:08:43;26.60;63.10
21318;DHT22;10818;50.830;6.524;2022-09-01T14:13:43;26.20;62.80
21318;DHT22;10818;50.830;6.524;2022-09-01T14:18:45;26.00;62.70
21318;DHT22;10818;50.830;6.524;2022-09-01T14:23:45;25.70;65.30
21318;DHT22;10818;50.830;6.524;2022-09-01T14:28:46;25.70;64.70
21318;DHT22;10818;50.830;6.524;2022-09-01T14:33:47;26.00;65.70
21318;DHT22;10818;50.830;6.524;2022-09-01T14:38:48;26.30;65.60
21318;DHT22;10818;50.830;6.524;2022-09-01T14:43:50;26.80;63.80
21318;DHT22;10818;50.830;6.524;2022-09-01T14:48:50;26.90;61.90
21318;DHT22;10818;50.830;6.524;2022-09-01T14:53:51;27.70;61.20
21318;DHT22;10818;50.830;6.524;2022-09-01T14:58:52;28.10;61.10
21318;DHT22;10818;50.830;6.524;2022-09-01T15:03:58;28.20;61.80
21318;DHT22;10818;50.830;6.524;2022-09-01T15:08:58;27.70;60.20
21318;DHT22;10818;50.830;6.524;2022-09-01T15:13:59;27.20;62.80
21318;DHT22;10818;50.830;6.524;2022-09-01T15:19:00;27.20;62.40
21318;DHT22;10818;50.830;6.524;2022-09-01T15:24:01;27.10;63.00
21318;DHT22;10818;50.830;6.524;2022-09-01T15:29:01;27.10;63.00
21318;DHT22;10818;50.830;6.524;2022-09-01T15:34:02;27.10;63.10
21318;DHT22;10818;50.830;6.524;2022-09-01T15:39:02;26.80;62.40
21318;DHT22;10818;50.830;6.524;2022-09-01T15:44:04;26.60;64.50
21318;DHT22;10818;50.830;6.524;2022-09-01T15:49:07;26.80;63.50
21318;DHT22;10818;50.830;6.524;2022-09-01T15:54:12;26.70;63.60
21318;DHT22;10818;50.830;6.524;2022-09-01T15:59:13;26.80;61.40
21318;DHT22;10818;50.830;6.524;2022-09-01T16:04:15;26.90;61.10
21318;DHT22;10818;50.830;6.524;2022-09-01T16:09:16;26.70;61.60
21318;DHT22;10818;50.830;6.524;2022-09-01T16:14:25;26.50;63.10
21318;DHT22;10818;50.830;6.524;2022-09-01T16:24:37;26.40;60.60
21318;DHT22;10818;50.830;6.524;2022-09-01T16:34:43;26.00;62.50
21318;DHT22;10818;50.830;6.524;2022-09-01T16:39:55;26.20;62.00
21318;DHT22;10818;50.830;6.524;2022-09-01T16:45:07;26.20;61.90
21318;DHT22;10818;50.830;6.524;2022-09-01T17:00:13;26.10;62.50
21318;DHT22;10818;50.830;6.524;2022-09-01T17:05:17;26.00;61.50
21318;DHT22;10818;50.830;6.524;2022-09-01T17:10:38;26.00;60.80
21318;DHT22;10818;50.830;6.524;2022-09-01T17:15:40;25.90;60.70
21318;DHT22;10818;50.830;6.524;2022-09-01T17:20:47;25.60;61.20
21318;DHT22;10818;50.830;6.524;2022-09-01T17:25:54;25.40;61.50
21318;DHT22;10818;50.830;6.524;2022-09-01T17:31:20;25.20;61.50
21318;DHT22;10818;50.830;6.524;2022-09-01T17:51:43;24.50;63.90
21318;DHT22;10818;50.830;6.524;2022-09-01T18:02:11;24.10;65.80
21318;DHT22;10818;50.830;6.524;2022-09-01T18:07:34;23.80;66.60
21318;DHT22;10818;50.830;6.524;2022-09-01T18:12:38;23.60;68.40
21318;DHT22;10818;50.830;6.524;2022-09-01T18:23:05;23.10;69.50
21318;DHT22;10818;50.830;6.524;2022-09-01T18:28:07;23.00;70.50
21318;DHT22;10818;50.830;6.524;2022-09-01T18:33:27;21.80;69.60
21318;DHT22;10818;50.830;6.524;2022-09-01T18:43:39;22.20;74.00
21318;DHT22;10818;50.830;6.524;2022-09-01T18:48:53;22.00;73.90
21318;DHT22;10818;50.830;6.524;2022-09-01T18:54:03;21.90;73.90
21318;DHT22;10818;50.830;6.524;2022-09-01T19:04:22;21.90;71.70
21318;DHT22;10818;50.830;6.524;2022-09-01T19:09:35;21.90;71.00
21318;DHT22;10818;50.830;6.524;2022-09-01T19:24:45;21.50;74.30
21318;DHT22;10818;50.830;6.524;2022-09-01T19:29:47;21.30;76.10
21318;DHT22;10818;50.830;6.524;2022-09-01T19:34:56;21.20;76.30
21318;DHT22;10818;50.830;6.524;2022-09-01T19:39:57;21.00;80.10
21318;DHT22;10818;50.830;6.524;2022-09-01T19:45:03;20.80;82.70
21318;DHT22;10818;50.830;6.524;2022-09-01T19:55:11;20.40;87.40
21318;DHT22;10818;50.830;6.524;2022-09-01T20:00:18;20.30;89.50
21318;DHT22;10818;50.830;6.524;2022-09-01T20:05:22;20.20;90.30
21318;DHT22;10818;50.830;6.524;2022-09-01T20:10:27;20.20;90.40
21318;DHT22;10818;50.830;6.524;2022-09-01T20:15:37;20.20;86.70
21318;DHT22;10818;50.830;6.524;2022-09-01T20:20:46;20.20;85.10
21318;DHT22;10818;50.830;6.524;2022-09-01T20:25:52;20.20;84.70
21318;DHT22;10818;50.830;6.524;2022-09-01T20:30:55;20.20;84.50
21318;DHT22;10818;50.830;6.524;2022-09-01T20:36:00;20.40;83.20
21318;DHT22;10818;50.830;6.524;2022-09-01T20:41:07;20.50;82.50
21318;DHT22;10818;50.830;6.524;2022-09-01T20:46:09;20.50;82.40
21318;DHT22;10818;50.830;6.524;2022-09-01T20:51:12;20.60;82.20
21318;DHT22;10818;50.830;6.524;2022-09-01T20:56:19;20.50;82.30
21318;DHT22;10818;50.830;6.524;2022-09-01T21:01:31;20.60;80.90
21318;DHT22;10818;50.830;6.524;2022-09-01T21:06:48;20.80;80.10
21318;DHT22;10818;50.830;6.524;2022-09-01T21:11:52;20.80;79.80
21318;DHT22;10818;50.830;6.524;2022-09-01T21:17:01;20.80;80.10
21318;DHT22;10818;50.830;6.524;2022-09-01T21:22:04;20.70;80.70
21318;DHT22;10818;50.830;6.524;2022-09-01T21:27:06;20.80;80.50
21318;DHT22;10818;50.830;6.524;2022-09-01T21:32:10;20.70;81.00
21318;DHT22;10818;50.830;6.524;2022-09-01T21:37:11;20.70;81.20
21318;DHT22;10818;50.830;6.524;2022-09-01T21:42:11;20.60;81.60
21318;DHT22;10818;50.830;6.524;2022-09-01T21:47:12;20.60;82.00
21318;DHT22;10818;50.830;6.524;2022-09-01T21:52:13;20.60;81.90
21318;DHT22;10818;50.830;6.524;2022-09-01T21:57:13;20.60;82.10
21318;DHT22;10818;50.830;6.524;2022-09-01T22:02:14;20.50;82.40
21318;DHT22;10818;50.830;6.524;2022-09-01T22:07:15;20.50;82.70
21318;DHT22;10818;50.830;6.524;2022-09-01T22:12:17;20.50;82.70
21318;DHT22;10818;50.830;6.524;2022-09-01T22:17:18;20.50;82.70
21318;DHT22;10818;50.830;6.524;2022-09-01T22:22:18;20.40;83.10
21318;DHT22;10818;50.830;6.524;2022-09-01T22:27:19;20.40;83.40
21318;DHT22;10818;50.830;6.524;2022-09-01T22:32:19;20.30;83.70
21318;DHT22;10818;50.830;6.524;2022-09-01T22:37:22;20.30;84.00
21318;DHT22;10818;50.830;6.524;2022-09-01T22:42:22;20.30;84.40
21318;DHT22;10818;50.830;6.524;2022-09-01T22:47:24;20.20;85.20
21318;DHT22;10818;50.830;6.524;2022-09-01T22:52:24;20.10;85.40
21318;DHT22;10818;50.830;6.524;2022-09-01T22:57:25;20.10;85.70
21318;DHT22;10818;50.830;6.524;2022-09-01T23:02:28;19.90;87.40
21318;DHT22;10818;50.830;6.524;2022-09-01T23:07:29;19.90;87.00
21318;DHT22;10818;50.830;6.524;2022-09-01T23:12:29;19.90;86.90
21318;DHT22;10818;50.830;6.524;2022-09-01T23:17:30;19.80;86.40
21318;DHT22;10818;50.830;6.524;2022-09-01T23:22:31;19.70;86.70
21318;DHT22;10818;50.830;6.524;2022-09-01T23:27:31;19.50;86.60
21318;DHT22;10818;50.830;6.524;2022-09-01T23:32:32;19.50;86.50
21318;DHT22;10818;50.830;6.524;2022-09-01T23:37:32;19.30;86.90
21318;DHT22;10818;50.830;6.524;2022-09-01T23:42:33;19.40;87.00
21318;DHT22;10818;50.830;6.524;2022-09-01T23:47:34;19.30;87.20
21318;DHT22;10818;50.830;6.524;2022-09-01T23:52:34;19.20;87.20
21318;DHT22;10818;50.830;6.524;2022-09-01T23:57:35;19.20;87.20
